sensor_id;sensor_type;location;lat;lon;timestamp;pressure;altitude;pressure_sealevel;temperature;humidity
15880;BME280;61999;51.514;14.614;2022-11-20T00:01:33;99651.97;;;-6.32;49.77
15880;BME280;61999;51.514;14.614;2022-11-20T00:04:01;99655.75;;;-6.02;48.44
15880;BME280;61999;51.514;14.614;2022-11-20T00:06:31;99652.03;;;-5.85;48.16
15880;BME280;61999;51.514;14.614;2022-11-20T00:09:00;99653.75;;;-6.37;48.32
15880;BME280;61999;51.514;14.614;2022-11-20T00:11:30;99653.25;;;-6.06;48.51
15880;BME280;61999;51.514;14.614;2022-11-20T00:14:02;99651.28;;;-5.92;47.90
15880;BME280;61999;51.514;14.614;2022-11-20T00:16:32;99643.09;;;-6.12;47.99
15880;BME280;61999;51.514;14.614;2022-11-20T00:19:01;99648.59;;;-6.34;49.09
15880;BME280;61999;51.514;14.614;2022-11-20T00:21:31;99647.41;;;-6.13;47.90
15880;BME280;61999;51.514;14.614;2022-11-20T00:23:59;99641.19;;;-6.01;47.73
15880;BME280;61999;51.514;14.614;2022-11-20T00:26:28;99645.94;;;-6.29;47.85
15880;BME280;61999;51.514;14.614;2022-11-20T00:29:00;99645.66;;;-6.12;47.77
15880;BME280;61999;51.514;14.614;2022-11-20T00:31:30;99653.41;;;-6.16;47.86
15880;BME280;61999;51.514;14.614;2022-11-20T00:33:59;99644.31;;;-6.33;48.44
15880;BME280;61999;51.514;14.614;2022-11-20T00:36:31;99649.81;;;-6.05;47.48
15880;BME280;61999;51.514;14.614;2022-11-20T00:39:00;99647.38;;;-6.64;48.11
15880;BME280;61999;51.514;14.614;2022-11-20T00:41:29;99644.47;;;-7.68;51.68
15880;BME280;61999;51.514;14.614;2022-11-20T00:43:57;99636.72;;;-7.62;50.80
15880;BME280;61999;51.514;14.614;2022-11-20T00:46:27;99643.84;;;-7.94;51.68
15880;BME280;61999;51.514;14.614;2022-11-20T00:48:55;99644.72;;;-9.05;54.64
15880;BME280;61999;51.514;14.614;2022-11-20T00:51:26;99655.00;;;-9.20;55.60
15880;BME280;61999;51.514;14.614;2022-11-20T00:53:57;99649.31;;;-10.01;57.97
15880;BME280;61999;51.514;14.614;2022-11-20T00:56:26;99647.56;;;-9.74;57.62
15880;BME280;61999;51.514;14.614;2022-11-20T00:58:54;99650.09;;;-9.68;58.45
15880;BME280;61999;51.514;14.614;2022-11-20T01:01:25;99655.13;;;-9.46;57.18
15880;BME280;61999;51.514;14.614;2022-11-20T01:03:56;99664.47;;;-9.39;56.70
15880;BME280;61999;51.514;14.614;2022-11-20T01:06:28;99663.72;;;-9.70;56.67
15880;BME280;61999;51.514;14.614;2022-11-20T01:09:00;99667.13;;;-9.84;57.62
15880;BME280;61999;51.514;14.614;2022-11-20T01:11:30;99679.06;;;-9.86;59.22
15880;BME280;61999;51.514;14.614;2022-11-20T01:14:02;99679.06;;;-9.86;58.64
15880;BME280;61999;51.514;14.614;2022-11-20T01:16:33;99669.50;;;-9.22;57.79
15880;BME280;61999;51.514;14.614;2022-11-20T01:19:05;99675.59;;;-9.68;57.49
15880;BME280;61999;51.514;14.614;2022-11-20T01:21:37;99682.47;;;-10.24;58.68
15880;BME280;61999;51.514;14.614;2022-11-20T01:24:11;99683.31;;;-10.58;60.52
15880;BME280;61999;51.514;14.614;2022-11-20T01:26:42;99684.94;;;-10.80;62.21
15880;BME280;61999;51.514;14.614;2022-11-20T01:29:14;99690.09;;;-10.74;61.87
15880;BME280;61999;51.514;14.614;2022-11-20T01:31:43;99697.69;;;-10.91;62.33
15880;BME280;61999;51.514;14.614;2022-11-20T01:34:16;99692.66;;;-10.02;60.60
15880;BME280;61999;51.514;14.614;2022-11-20T01:36:45;99690.13;;;-10.13;60.25
15880;BME280;61999;51.514;14.614;2022-11-20T01:39:18;99689.25;;;-10.10;59.29
15880;BME280;61999;51.514;14.614;2022-11-20T01:41:47;99689.25;;;-10.04;59.64
15880;BME280;61999;51.514;14.614;2022-11-20T01:44:52;99688.31;;;-9.59;57.52
15880;BME280;61999;51.514;14.614;2022-11-20T01:47:30;99685.88;;;-10.34;60.30
15880;BME280;61999;51.514;14.614;2022-11-20T01:50:06;99680.78;;;-10.37;60.30
15880;BME280;61999;51.514;14.614;2022-11-20T01:52:42;99679.06;;;-10.59;60.94
15880;BME280;61999;51.514;14.614;2022-11-20T01:55:19;99682.47;;;-10.54;61.16
15880;BME280;61999;51.514;14.614;2022-11-20T01:57:49;99679.91;;;-10.33;61.54
15880;BME280;61999;51.514;14.614;2022-11-20T02:00:20;99668.03;;;-10.54;60.83
15880;BME280;61999;51.514;14.614;2022-11-20T02:02:53;99670.56;;;-10.43;61.73
15880;BME280;61999;51.514;14.614;2022-11-20T02:05:29;99668.00;;;-10.02;59.90
15880;BME280;61999;51.514;14.614;2022-11-20T02:07:59;99655.94;;;-9.38;58.58
15880;BME280;61999;51.514;14.614;2022-11-20T02:10:30;99658.47;;;-9.34;57.58
15880;BME280;61999;51.514;14.614;2022-11-20T02:12:59;99655.75;;;-8.94;56.10
15880;BME280;61999;51.514;14.614;2022-11-20T02:15:45;99649.59;;;-8.65;56.04
15880;BME280;61999;51.514;14.614;2022-11-20T02:18:17;99653.84;;;-8.67;56.04
15880;BME280;61999;51.514;14.614;2022-11-20T02:20:50;99650.53;;;-8.81;54.85
15880;BME280;61999;51.514;14.614;2022-11-20T02:23:32;99647.38;;;-8.05;53.71
15880;BME280;61999;51.514;14.614;2022-11-20T02:26:06;99637.84;;;-7.89;53.29
15880;BME280;61999;51.514;14.614;2022-11-20T02:28:37;99641.75;;;-7.56;52.46
15880;BME280;61999;51.514;14.614;2022-11-20T02:31:06;99644.22;;;-7.48;51.20
15880;BME280;61999;51.514;14.614;2022-11-20T02:33:34;99642.19;;;-7.95;52.63
15880;BME280;61999;51.514;14.614;2022-11-20T02:36:02;99637.44;;;-7.50;51.13
15880;BME280;61999;51.514;14.614;2022-11-20T02:38:31;99641.47;;;-7.31;50.69
15880;BME280;61999;51.514;14.614;2022-11-20T02:40:59;99642.19;;;-7.95;51.36
15880;BME280;61999;51.514;14.614;2022-11-20T02:43:28;99636.56;;;-7.49;51.26
15880;BME280;61999;51.514;14.614;2022-11-20T02:45:56;99637.94;;;-7.25;50.62
15880;BME280;61999;51.514;14.614;2022-11-20T02:48:24;99631.19;;;-8.07;51.99
15880;BME280;61999;51.514;14.614;2022-11-20T02:50:53;99634.94;;;-7.57;51.37
15880;BME280;61999;51.514;14.614;2022-11-20T02:53:21;99624.75;;;-7.63;50.99
15880;BME280;61999;51.514;14.614;2022-11-20T02:55:49;99619.44;;;-7.44;50.52
15880;BME280;61999;51.514;14.614;2022-11-20T02:58:17;99612.94;;;-7.73;51.17
15880;BME280;61999;51.514;14.614;2022-11-20T03:00:47;99608.41;;;-8.28;52.30
15880;BME280;61999;51.514;14.614;2022-11-20T03:03:14;99603.78;;;-8.93;54.77
15880;BME280;61999;51.514;14.614;2022-11-20T03:05:42;99611.78;;;-9.51;57.76
15880;BME280;61999;51.514;14.614;2022-11-20T03:08:10;99610.03;;;-9.40;56.84
15880;BME280;61999;51.514;14.614;2022-11-20T03:10:38;99607.66;;;-9.83;58.45
15880;BME280;61999;51.514;14.614;2022-11-20T03:13:07;99612.81;;;-10.10;59.38
15880;BME280;61999;51.514;14.614;2022-11-20T03:15:36;99612.75;;;-9.84;59.43
15880;BME280;61999;51.514;14.614;2022-11-20T03:18:05;99617.03;;;-10.05;60.12
15880;BME280;61999;51.514;14.614;2022-11-20T03:20:33;99609.34;;;-9.82;59.52
15880;BME280;61999;51.514;14.614;2022-11-20T03:23:02;99614.50;;;-10.18;60.83
15880;BME280;61999;51.514;14.614;2022-11-20T03:25:30;99621.31;;;-10.05;60.17
15880;BME280;61999;51.514;14.614;2022-11-20T03:27:58;99623.88;;;-10.60;62.27
15880;BME280;61999;51.514;14.614;2022-11-20T03:30:26;99628.09;;;-10.84;62.82
15880;BME280;61999;51.514;14.614;2022-11-20T03:32:56;99628.13;;;-10.46;62.38
15880;BME280;61999;51.514;14.614;2022-11-20T03:35:25;99621.31;;;-10.70;62.81
15880;BME280;61999;51.514;14.614;2022-11-20T03:37:53;99623.00;;;-10.90;62.51
15880;BME280;61999;51.514;14.614;2022-11-20T03:40:21;99628.84;;;-11.40;63.51
15880;BME280;61999;51.514;14.614;2022-11-20T03:42:49;99634.66;;;-11.69;65.02
15880;BME280;61999;51.514;14.614;2022-11-20T03:45:18;99633.75;;;-11.77;64.82
15880;BME280;61999;51.514;14.614;2022-11-20T03:47:46;99627.88;;;-11.64;65.97
15880;BME280;61999;51.514;14.614;2022-11-20T03:50:14;99627.06;;;-11.49;64.77
15880;BME280;61999;51.514;14.614;2022-11-20T03:52:43;99621.22;;;-11.34;63.83
15880;BME280;61999;51.514;14.614;2022-11-20T03:55:12;99616.22;;;-10.94;63.88
15880;BME280;61999;51.514;14.614;2022-11-20T03:57:39;99616.22;;;-10.97;62.40
15880;BME280;61999;51.514;14.614;2022-11-20T04:00:09;99618.75;;;-11.08;62.57
15880;BME280;61999;51.514;14.614;2022-11-20T04:02:37;99617.91;;;-10.78;62.43
15880;BME280;61999;51.514;14.614;2022-11-20T04:05:06;99615.38;;;-10.30;61.28
15880;BME280;61999;51.514;14.614;2022-11-20T04:07:34;99601.75;;;-10.06;59.97
15880;BME280;61999;51.514;14.614;2022-11-20T04:10:05;99602.53;;;-9.80;59.00
15880;BME280;61999;51.514;14.614;2022-11-20T04:12:33;99600.09;;;-10.33;59.60
15880;BME280;61999;51.514;14.614;2022-11-20T04:15:01;99606.03;;;-10.60;60.59
15880;BME280;61999;51.514;14.614;2022-11-20T04:17:29;99606.00;;;-11.13;62.92
15880;BME280;61999;51.514;14.614;2022-11-20T04:19:57;99606.06;;;-10.88;63.59
15880;BME280;61999;51.514;14.614;2022-11-20T04:22:25;99604.28;;;-11.12;63.10
15880;BME280;61999;51.514;14.614;2022-11-20T04:24:53;99601.81;;;-10.91;64.10
15880;BME280;61999;51.514;14.614;2022-11-20T04:27:23;99598.41;;;-10.97;63.93
15880;BME280;61999;51.514;14.614;2022-11-20T04:29:51;99596.66;;;-11.23;64.25
15880;BME280;61999;51.514;14.614;2022-11-20T04:32:19;99597.56;;;-11.02;64.17
15880;BME280;61999;51.514;14.614;2022-11-20T04:34:47;99586.50;;;-10.14;62.72
15880;BME280;61999;51.514;14.614;2022-11-20T04:37:15;99588.19;;;-10.22;61.32
15880;BME280;61999;51.514;14.614;2022-11-20T04:39:43;99593.75;;;-9.20;59.89
15880;BME280;61999;51.514;14.614;2022-11-20T04:42:11;99591.69;;;-8.66;57.59
15880;BME280;61999;51.514;14.614;2022-11-20T04:44:58;99595.00;;;-8.55;55.59
15880;BME280;61999;51.514;14.614;2022-11-20T04:47:26;99594.94;;;-8.49;55.17
15880;BME280;61999;51.514;14.614;2022-11-20T04:49:54;99600.25;;;-8.73;56.91
15880;BME280;61999;51.514;14.614;2022-11-20T04:52:22;99592.09;;;-8.16;54.34
15880;BME280;61999;51.514;14.614;2022-11-20T04:54:50;99594.78;;;-8.30;54.93
15880;BME280;61999;51.514;14.614;2022-11-20T04:57:20;99591.25;;;-8.20;54.59
15880;BME280;61999;51.514;14.614;2022-11-20T04:59:48;99589.59;;;-8.24;55.13
15880;BME280;61999;51.514;14.614;2022-11-20T05:02:18;99591.44;;;-8.38;54.73
15880;BME280;61999;51.514;14.614;2022-11-20T05:04:46;99592.03;;;-8.12;54.31
15880;BME280;61999;51.514;14.614;2022-11-20T05:07:14;99590.34;;;-8.13;54.50
15880;BME280;61999;51.514;14.614;2022-11-20T05:09:42;99588.41;;;-7.88;53.92
15880;BME280;61999;51.514;14.614;2022-11-20T05:12:10;99588.09;;;-7.63;52.88
15880;BME280;61999;51.514;14.614;2022-11-20T05:14:38;99592.19;;;-7.50;52.32
15880;BME280;61999;51.514;14.614;2022-11-20T05:17:06;99597.22;;;-7.42;52.00
15880;BME280;61999;51.514;14.614;2022-11-20T05:19:38;99593.72;;;-7.35;50.90
15880;BME280;61999;51.514;14.614;2022-11-20T05:22:06;99593.72;;;-7.34;51.11
15880;BME280;61999;51.514;14.614;2022-11-20T05:24:34;99589.38;;;-7.32;50.09
15880;BME280;61999;51.514;14.614;2022-11-20T05:27:02;99585.13;;;-7.31;50.60
15880;BME280;61999;51.514;14.614;2022-11-20T05:29:30;99593.72;;;-7.35;50.33
15880;BME280;61999;51.514;14.614;2022-11-20T05:31:58;99594.09;;;-7.66;51.67
15880;BME280;61999;51.514;14.614;2022-11-20T05:34:26;99591.25;;;-7.43;51.04
15880;BME280;61999;51.514;14.614;2022-11-20T05:36:55;99594.59;;;-7.36;50.64
15880;BME280;61999;51.514;14.614;2022-11-20T05:39:23;99595.38;;;-7.34;49.83
15880;BME280;61999;51.514;14.614;2022-11-20T05:41:51;99587.75;;;-7.37;50.34
15880;BME280;61999;51.514;14.614;2022-11-20T05:44:39;99583.63;;;-7.47;51.00
15880;BME280;61999;51.514;14.614;2022-11-20T05:47:08;99577.59;;;-7.42;50.24
15880;BME280;61999;51.514;14.614;2022-11-20T05:49:36;99568.25;;;-7.44;50.61
15880;BME280;61999;51.514;14.614;2022-11-20T05:52:06;99573.63;;;-7.66;50.50
15880;BME280;61999;51.514;14.614;2022-11-20T05:54:34;99564.94;;;-7.54;50.14
15880;BME280;61999;51.514;14.614;2022-11-20T05:57:02;99574.19;;;-7.42;50.14
15880;BME280;61999;51.514;14.614;2022-11-20T05:59:30;99563.91;;;-7.39;49.46
15880;BME280;61999;51.514;14.614;2022-11-20T06:01:58;99567.31;;;-7.39;49.85
15880;BME280;61999;51.514;14.614;2022-11-20T06:04:26;99567.28;;;-7.36;48.95
15880;BME280;61999;51.514;14.614;2022-11-20T06:06:54;99563.03;;;-7.37;49.12
15880;BME280;61999;51.514;14.614;2022-11-20T06:09:24;99563.00;;;-7.35;49.49
15880;BME280;61999;51.514;14.614;2022-11-20T06:11:51;99558.75;;;-7.38;48.97
15880;BME280;61999;51.514;14.614;2022-11-20T06:14:20;99551.94;;;-7.39;48.69
15880;BME280;61999;51.514;14.614;2022-11-20T06:16:48;99562.16;;;-7.37;48.74
15880;BME280;61999;51.514;14.614;2022-11-20T06:21:17;99563.00;;;-7.35;48.61
15880;BME280;61999;51.514;14.614;2022-11-20T06:23:46;99568.25;;;-7.44;48.62
15880;BME280;61999;51.514;14.614;2022-11-20T06:26:18;99566.47;;;-7.41;48.40
15880;BME280;61999;51.514;14.614;2022-11-20T06:28:46;99569.84;;;-7.37;48.55
15880;BME280;61999;51.514;14.614;2022-11-20T06:31:17;99567.22;;;-7.31;48.97
15880;BME280;61999;51.514;14.614;2022-11-20T06:33:46;99562.06;;;-7.28;48.56
15880;BME280;61999;51.514;14.614;2022-11-20T06:36:16;99563.69;;;-7.25;48.81
15880;BME280;61999;51.514;14.614;2022-11-20T06:38:45;99564.56;;;-7.25;48.82
15880;BME280;61999;51.514;14.614;2022-11-20T06:41:17;99564.53;;;-7.22;48.76
15880;BME280;61999;51.514;14.614;2022-11-20T06:43:46;99562.00;;;-7.25;48.00
15880;BME280;61999;51.514;14.614;2022-11-20T06:46:17;99567.97;;;-7.26;48.39
15880;BME280;61999;51.514;14.614;2022-11-20T06:48:45;99567.13;;;-7.25;48.73
15880;BME280;61999;51.514;14.614;2022-11-20T06:51:14;99567.94;;;-7.23;48.96
15880;BME280;61999;51.514;14.614;2022-11-20T06:53:46;99566.19;;;-7.21;48.15
15880;BME280;61999;51.514;14.614;2022-11-20T06:56:15;99561.91;;;-7.19;48.24
15880;BME280;61999;51.514;14.614;2022-11-20T06:58:43;99558.47;;;-7.18;49.26
15880;BME280;61999;51.514;14.614;2022-11-20T07:01:13;99559.31;;;-7.16;48.95
15880;BME280;61999;51.514;14.614;2022-11-20T07:03:42;99548.19;;;-7.13;48.90
15880;BME280;61999;51.514;14.614;2022-11-20T07:06:11;99545.56;;;-7.10;48.34
15880;BME280;61999;51.514;14.614;2022-11-20T07:08:39;99554.03;;;-7.05;48.59
15880;BME280;61999;51.514;14.614;2022-11-20T07:11:07;99554.78;;;-6.98;48.60
15880;BME280;61999;51.514;14.614;2022-11-20T07:13:37;99559.75;;;-6.89;48.59
15880;BME280;61999;51.514;14.614;2022-11-20T07:16:07;99558.81;;;-6.82;49.50
15880;BME280;61999;51.514;14.614;2022-11-20T07:18:35;99555.22;;;-6.72;49.37
15880;BME280;61999;51.514;14.614;2022-11-20T07:21:07;99558.44;;;-6.61;49.74
15880;BME280;61999;51.514;14.614;2022-11-20T07:23:36;99553.09;;;-6.48;49.54
15880;BME280;61999;51.514;14.614;2022-11-20T07:26:05;99549.44;;;-6.35;49.69
15880;BME280;61999;51.514;14.614;2022-11-20T07:28:34;99548.31;;;-6.20;49.95
15880;BME280;61999;51.514;14.614;2022-11-20T07:31:04;99549.00;;;-6.10;49.15
15880;BME280;61999;51.514;14.614;2022-11-20T07:33:33;99545.25;;;-5.94;49.94
15880;BME280;61999;51.514;14.614;2022-11-20T07:36:02;99548.38;;;-5.80;49.48
15880;BME280;61999;51.514;14.614;2022-11-20T07:38:30;99546.53;;;-5.72;48.98
15880;BME280;61999;51.514;14.614;2022-11-20T07:40:58;99551.28;;;-5.53;48.42
15880;BME280;61999;51.514;14.614;2022-11-20T07:43:28;99547.50;;;-5.37;49.09
15880;BME280;61999;51.514;14.614;2022-11-20T07:45:57;99544.59;;;-5.21;49.19
15880;BME280;61999;51.514;14.614;2022-11-20T07:48:26;99545.13;;;-5.07;49.83
15880;BME280;61999;51.514;14.614;2022-11-20T07:50:55;99548.16;;;-4.91;48.86
15880;BME280;61999;51.514;14.614;2022-11-20T07:53:23;99552.56;;;-5.34;47.27
15880;BME280;61999;51.514;14.614;2022-11-20T07:55:51;99531.69;;;-5.18;48.31
15880;BME280;61999;51.514;14.614;2022-11-20T07:58:20;99536.81;;;-4.81;48.11
15880;BME280;61999;51.514;14.614;2022-11-20T08:00:48;99531.75;;;-5.60;48.25
15880;BME280;61999;51.514;14.614;2022-11-20T08:03:16;99525.94;;;-5.30;48.04
15880;BME280;61999;51.514;14.614;2022-11-20T08:05:48;99533.47;;;-6.49;49.87
15880;BME280;61999;51.514;14.614;2022-11-20T08:08:16;99541.72;;;-6.83;52.11
15880;BME280;61999;51.514;14.614;2022-11-20T08:10:44;99540.78;;;-6.28;51.64
15880;BME280;61999;51.514;14.614;2022-11-20T08:13:12;99549.06;;;-6.62;51.37
15880;BME280;61999;51.514;14.614;2022-11-20T08:15:58;99540.47;;;-5.67;50.30
15880;BME280;61999;51.514;14.614;2022-11-20T08:18:26;99529.34;;;-6.10;50.71
15880;BME280;61999;51.514;14.614;2022-11-20T08:20:58;99543.22;;;-7.25;53.14
15880;BME280;61999;51.514;14.614;2022-11-20T08:23:29;99533.50;;;-6.04;50.90
15880;BME280;61999;51.514;14.614;2022-11-20T08:25:57;99535.06;;;-5.97;50.25
15880;BME280;61999;51.514;14.614;2022-11-20T08:28:24;99536.75;;;-6.41;50.60
15880;BME280;61999;51.514;14.614;2022-11-20T08:30:58;99534.91;;;-6.34;49.65
15880;BME280;61999;51.514;14.614;2022-11-20T08:33:27;99537.09;;;-6.13;50.54
15880;BME280;61999;51.514;14.614;2022-11-20T08:36:00;99538.50;;;-5.98;50.58
15880;BME280;61999;51.514;14.614;2022-11-20T08:38:29;99535.53;;;-6.22;49.52
15880;BME280;61999;51.514;14.614;2022-11-20T08:40:57;99523.91;;;-5.54;48.35
15880;BME280;61999;51.514;14.614;2022-11-20T08:43:43;99524.91;;;-6.03;49.14
15880;BME280;61999;51.514;14.614;2022-11-20T08:46:12;99522.84;;;-6.29;49.41
15880;BME280;61999;51.514;14.614;2022-11-20T08:48:40;99513.53;;;-6.33;49.96
15880;BME280;61999;51.514;14.614;2022-11-20T08:51:10;99513.59;;;-6.38;49.65
15880;BME280;61999;51.514;14.614;2022-11-20T08:53:39;99515.91;;;-6.24;50.41
15880;BME280;61999;51.514;14.614;2022-11-20T08:56:08;99511.97;;;-5.97;48.30
15880;BME280;61999;51.514;14.614;2022-11-20T08:58:36;99525.56;;;-7.42;51.67
15880;BME280;61999;51.514;14.614;2022-11-20T09:01:14;99528.16;;;-6.90;51.79
15880;BME280;61999;51.514;14.614;2022-11-20T09:03:42;99514.06;;;-6.16;51.10
15880;BME280;61999;51.514;14.614;2022-11-20T09:06:12;99510.72;;;-6.68;51.70
15880;BME280;61999;51.514;14.614;2022-11-20T09:08:41;99510.72;;;-7.20;52.87
15880;BME280;61999;51.514;14.614;2022-11-20T09:11:09;99510.06;;;-6.31;53.41
15880;BME280;61999;51.514;14.614;2022-11-20T09:13:37;99503.69;;;-6.56;51.18
15880;BME280;61999;51.514;14.614;2022-11-20T09:16:08;99505.97;;;-5.96;50.85
15880;BME280;61999;51.514;14.614;2022-11-20T09:18:37;99510.38;;;-6.48;50.47
15880;BME280;61999;51.514;14.614;2022-11-20T09:21:09;99515.03;;;-6.22;50.22
15880;BME280;61999;51.514;14.614;2022-11-20T09:23:39;99505.09;;;-4.82;48.25
15880;BME280;61999;51.514;14.614;2022-11-20T09:26:11;99505.44;;;-3.66;46.13
15880;BME280;61999;51.514;14.614;2022-11-20T09:28:40;99509.47;;;-3.29;43.88
15880;BME280;61999;51.514;14.614;2022-11-20T09:31:11;99505.69;;;-4.38;44.74
15880;BME280;61999;51.514;14.614;2022-11-20T09:33:43;99504.50;;;-5.29;47.16
15880;BME280;61999;51.514;14.614;2022-11-20T09:36:11;99496.88;;;-5.32;47.41
15880;BME280;61999;51.514;14.614;2022-11-20T09:38:41;99510.50;;;-3.35;43.40
15880;BME280;61999;51.514;14.614;2022-11-20T09:41:36;99510.25;;;-4.82;45.95
15880;BME280;61999;51.514;14.614;2022-11-20T09:44:28;99508.91;;;-5.73;47.27
15880;BME280;61999;51.514;14.614;2022-11-20T09:47:08;99506.22;;;-5.29;46.72
15880;BME280;61999;51.514;14.614;2022-11-20T09:49:59;99496.75;;;-5.64;47.76
15880;BME280;61999;51.514;14.614;2022-11-20T09:52:41;99495.56;;;-5.90;48.23
15880;BME280;61999;51.514;14.614;2022-11-20T09:55:14;99492.69;;;-5.75;48.52
15880;BME280;61999;51.514;14.614;2022-11-20T09:57:47;99483.09;;;-5.66;48.77
15880;BME280;61999;51.514;14.614;2022-11-20T10:00:17;99474.25;;;-4.82;46.63
15880;BME280;61999;51.514;14.614;2022-11-20T10:02:55;99468.59;;;-5.30;46.83
15880;BME280;61999;51.514;14.614;2022-11-20T10:05:31;99470.19;;;-3.64;45.47
15880;BME280;61999;51.514;14.614;2022-11-20T10:08:14;99474.63;;;-3.41;42.22
15880;BME280;61999;51.514;14.614;2022-11-20T10:10:49;99468.38;;;-4.21;44.15
15880;BME280;61999;51.514;14.614;2022-11-20T10:13:38;99461.41;;;-4.82;45.23
15880;BME280;61999;51.514;14.614;2022-11-20T10:16:27;99461.28;;;-5.11;46.08
15880;BME280;61999;51.514;14.614;2022-11-20T10:19:13;99456.69;;;-3.44;44.82
15880;BME280;61999;51.514;14.614;2022-11-20T10:21:59;99458.63;;;-4.10;43.80
15880;BME280;61999;51.514;14.614;2022-11-20T10:24:53;99455.03;;;-3.75;42.16
15880;BME280;61999;51.514;14.614;2022-11-20T10:27:56;99465.75;;;-3.32;41.61
15880;BME280;61999;51.514;14.614;2022-11-20T10:30:27;99464.09;;;-3.07;41.03
15880;BME280;61999;51.514;14.614;2022-11-20T10:33:08;99462.94;;;-2.48;39.89
15880;BME280;61999;51.514;14.614;2022-11-20T10:35:45;99454.66;;;-3.08;40.04
15880;BME280;61999;51.514;14.614;2022-11-20T10:38:21;99461.56;;;-1.86;40.64
15880;BME280;61999;51.514;14.614;2022-11-20T10:40:55;99463.41;;;-2.37;39.62
15880;BME280;61999;51.514;14.614;2022-11-20T10:43:48;99456.09;;;-2.24;39.60
15880;BME280;61999;51.514;14.614;2022-11-20T10:46:22;99451.78;;;-1.54;39.22
15880;BME280;61999;51.514;14.614;2022-11-20T10:48:51;99449.94;;;-1.08;38.71
15880;BME280;61999;51.514;14.614;2022-11-20T10:51:35;99447.63;;;-2.27;38.92
15880;BME280;61999;51.514;14.614;2022-11-20T10:54:17;99440.66;;;0.07;37.43
15880;BME280;61999;51.514;14.614;2022-11-20T10:56:51;99438.78;;;1.18;34.17
15880;BME280;61999;51.514;14.614;2022-11-20T10:59:48;99428.38;;;1.36;32.77
15880;BME280;61999;51.514;14.614;2022-11-20T11:02:22;99423.31;;;0.65;33.90
15880;BME280;61999;51.514;14.614;2022-11-20T11:04:52;99413.78;;;1.50;32.86
15880;BME280;61999;51.514;14.614;2022-11-20T11:07:24;99414.72;;;1.99;33.83
15880;BME280;61999;51.514;14.614;2022-11-20T11:09:56;99413.00;;;2.61;31.31
15880;BME280;61999;51.514;14.614;2022-11-20T11:12:27;99410.69;;;3.17;32.91
15880;BME280;61999;51.514;14.614;2022-11-20T11:14:57;99411.00;;;2.96;30.94
15880;BME280;61999;51.514;14.614;2022-11-20T11:17:28;99406.19;;;2.28;31.63
15880;BME280;61999;51.514;14.614;2022-11-20T11:20:15;99413.22;;;1.28;32.26
15880;BME280;61999;51.514;14.614;2022-11-20T11:22:46;99403.50;;;3.06;31.59
15880;BME280;61999;51.514;14.614;2022-11-20T11:25:29;99399.16;;;4.34;31.72
15880;BME280;61999;51.514;14.614;2022-11-20T11:27:59;99396.91;;;3.15;29.95
15880;BME280;61999;51.514;14.614;2022-11-20T11:30:41;99398.97;;;2.17;30.65
15880;BME280;61999;51.514;14.614;2022-11-20T11:33:11;99399.19;;;0.97;32.83
15880;BME280;61999;51.514;14.614;2022-11-20T11:35:49;99397.53;;;0.24;35.13
15880;BME280;61999;51.514;14.614;2022-11-20T11:38:23;99385.03;;;2.34;32.61
15880;BME280;61999;51.514;14.614;2022-11-20T11:40:56;99385.78;;;4.26;32.16
15880;BME280;61999;51.514;14.614;2022-11-20T11:43:27;99379.50;;;4.01;29.50
15880;BME280;61999;51.514;14.614;2022-11-20T11:46:35;99379.69;;;2.68;30.92
15880;BME280;61999;51.514;14.614;2022-11-20T11:49:17;99374.78;;;4.48;28.70
15880;BME280;61999;51.514;14.614;2022-11-20T11:52:00;99373.56;;;3.85;29.54
15880;BME280;61999;51.514;14.614;2022-11-20T11:54:37;99374.50;;;3.84;30.66
15880;BME280;61999;51.514;14.614;2022-11-20T11:57:15;99367.59;;;5.55;29.55
15880;BME280;61999;51.514;14.614;2022-11-20T12:00:00;99366.34;;;5.09;27.91
15880;BME280;61999;51.514;14.614;2022-11-20T12:02:38;99350.00;;;4.68;27.58
15880;BME280;61999;51.514;14.614;2022-11-20T12:05:18;99353.16;;;4.18;27.83
15880;BME280;61999;51.514;14.614;2022-11-20T12:07:53;99358.06;;;2.96;28.78
15880;BME280;61999;51.514;14.614;2022-11-20T12:10:39;99354.63;;;0.89;31.85
15880;BME280;61999;51.514;14.614;2022-11-20T12:13:21;99346.38;;;2.28;31.07
15880;BME280;61999;51.514;14.614;2022-11-20T12:15:53;99337.56;;;2.15;30.79
15880;BME280;61999;51.514;14.614;2022-11-20T12:18:27;99351.97;;;2.97;30.47
15880;BME280;61999;51.514;14.614;2022-11-20T12:21:14;99341.78;;;1.03;32.25
15880;BME280;61999;51.514;14.614;2022-11-20T12:24:00;99341.91;;;1.83;31.09
15880;BME280;61999;51.514;14.614;2022-11-20T12:26:49;99342.78;;;2.15;31.00
15880;BME280;61999;51.514;14.614;2022-11-20T12:29:37;99339.00;;;3.25;30.39
15880;BME280;61999;51.514;14.614;2022-11-20T12:32:47;99344.94;;;3.27;29.43
15880;BME280;61999;51.514;14.614;2022-11-20T12:35:55;99342.00;;;2.59;30.98
15880;BME280;61999;51.514;14.614;2022-11-20T12:41:54;99337.69;;;2.44;31.59
15880;BME280;61999;51.514;14.614;2022-11-20T12:45:10;99331.72;;;2.11;30.50
15880;BME280;61999;51.514;14.614;2022-11-20T12:48:14;99342.09;;;-0.10;33.59
15880;BME280;61999;51.514;14.614;2022-11-20T12:51:09;99346.44;;;-0.11;33.95
15880;BME280;61999;51.514;14.614;2022-11-20T12:53:58;99331.34;;;-0.39;33.92
15880;BME280;61999;51.514;14.614;2022-11-20T12:56:42;99334.38;;;-0.87;34.40
15880;BME280;61999;51.514;14.614;2022-11-20T12:59:33;99329.88;;;0.30;33.33
15880;BME280;61999;51.514;14.614;2022-11-20T13:02:18;99333.38;;;-1.67;35.35
15880;BME280;61999;51.514;14.614;2022-11-20T13:05:17;99327.84;;;-1.79;36.32
15880;BME280;61999;51.514;14.614;2022-11-20T13:07:51;99324.63;;;-1.84;36.83
15880;BME280;61999;51.514;14.614;2022-11-20T13:10:27;99321.13;;;-2.05;37.13
15880;BME280;61999;51.514;14.614;2022-11-20T13:13:10;99327.81;;;-2.45;38.27
15880;BME280;61999;51.514;14.614;2022-11-20T13:15:50;99317.47;;;-2.00;38.32
15880;BME280;61999;51.514;14.614;2022-11-20T13:18:20;99312.09;;;-1.31;36.26
15880;BME280;61999;51.514;14.614;2022-11-20T13:20:48;99325.66;;;-2.34;38.43
15880;BME280;61999;51.514;14.614;2022-11-20T13:23:27;99321.84;;;-2.24;37.92
15880;BME280;61999;51.514;14.614;2022-11-20T13:26:15;99312.47;;;-1.60;37.45